createdAt,value
2023-03-06T00:00:59.576Z,9.60
2023-03-06T00:03:28.435Z,9.50
2023-03-06T00:05:57.899Z,9.40
2023-03-06T00:08:27.488Z,9.40
2023-03-06T00:10:56.389Z,9.40
2023-03-06T00:13:26.333Z,9.40
2023-03-06T00:15:56.063Z,9.30
2023-03-06T00:18:23.041Z,9.30
2023-03-06T00:20:49.824Z,9.30
2023-03-06T00:23:16.736Z,9.30
2023-03-06T00:25:44.638Z,9.30
2023-03-06T00:28:14.716Z,9.30
2023-03-06T00:30:42.012Z,9.30
2023-03-06T00:33:08.881Z,9.20
2023-03-06T00:35:38.243Z,9.20
2023-03-06T00:38:06.484Z,9.20
2023-03-06T00:40:33.357Z,9.20
2023-03-06T00:43:00.217Z,9.20
2023-03-06T00:45:28.108Z,9.30
2023-03-06T00:47:56.106Z,9.30
2023-03-06T00:50:22.998Z,9.20
2023-03-06T00:52:49.861Z,9.20
2023-03-06T00:55:16.871Z,9.30
2023-03-06T00:57:44.045Z,9.30
2023-03-06T01:00:12.786Z,9.30
2023-03-06T01:02:40.464Z,9.20
2023-03-06T01:05:08.768Z,9.20
2023-03-06T01:07:37.271Z,9.20
2023-03-06T01:10:08.263Z,9.20
2023-03-06T01:12:35.496Z,9.20
2023-03-06T01:15:02.561Z,9.20
2023-03-06T01:17:29.402Z,9.10
2023-03-06T01:19:57.447Z,9.20
2023-03-06T01:22:24.456Z,9.20
2023-03-06T01:24:51.337Z,9.20
2023-03-06T01:27:18.536Z,9.10
2023-03-06T01:29:45.536Z,9.10
2023-03-06T01:32:12.522Z,9.10
2023-03-06T01:34:41.879Z,9.10
2023-03-06T01:37:08.780Z,9.10
2023-03-06T01:39:35.622Z,9.10
2023-03-06T01:42:02.773Z,9.10
2023-03-06T01:44:30.126Z,9.10
2023-03-06T01:46:57.332Z,9.00
2023-03-06T01:49:26.783Z,9.00
2023-03-06T01:51:53.657Z,9.00
2023-03-06T01:54:31.681Z,9.00
2023-03-06T01:57:24.139Z,9.00
2023-03-06T01:59:55.959Z,8.90
2023-03-06T02:02:23.567Z,8.90
2023-03-06T02:04:50.359Z,9.00
2023-03-06T02:07:20.307Z,8.90
2023-03-06T02:09:47.364Z,8.90
2023-03-06T02:12:19.264Z,8.90
2023-03-06T02:14:47.085Z,8.90
2023-03-06T02:17:17.036Z,8.80
2023-03-06T02:20:18.643Z,8.80
2023-03-06T02:22:58.251Z,8.70
2023-03-06T02:25:42.640Z,8.70
2023-03-06T02:28:14.101Z,8.70
2023-03-06T02:30:42.400Z,8.60
2023-03-06T02:33:16.101Z,8.60
2023-03-06T02:36:16.675Z,8.60
2023-03-06T02:38:50.167Z,8.60
2023-03-06T02:41:17.570Z,8.40
2023-03-06T02:43:47.649Z,8.50
2023-03-06T02:46:14.655Z,8.40
2023-03-06T02:48:41.689Z,8.40
2023-03-06T02:51:08.830Z,8.40
2023-03-06T02:53:36.083Z,8.50
2023-03-06T02:56:03.332Z,8.50
2023-03-06T02:58:30.138Z,8.40
2023-03-06T03:00:56.884Z,8.40
2023-03-06T03:03:23.709Z,8.50
2023-03-06T03:05:50.665Z,8.50
2023-03-06T03:08:18.105Z,8.60
2023-03-06T03:10:45.257Z,8.60
2023-03-06T03:13:12.434Z,8.60
2023-03-06T03:15:41.362Z,8.60
2023-03-06T03:18:08.248Z,8.70
2023-03-06T03:20:35.260Z,8.70
2023-03-06T03:23:02.041Z,8.70
2023-03-06T03:25:29.093Z,8.70
2023-03-06T03:27:56.238Z,8.70
2023-03-06T03:30:23.333Z,8.70
2023-03-06T03:32:50.346Z,8.70
2023-03-06T03:35:17.439Z,8.80
2023-03-06T03:37:44.384Z,8.80
2023-03-06T03:40:11.799Z,8.80
2023-03-06T03:42:38.798Z,8.90
2023-03-06T03:45:06.173Z,8.90
2023-03-06T03:47:33.094Z,8.90
2023-03-06T03:50:01.357Z,9.00
2023-03-06T03:52:28.481Z,9.00
2023-03-06T03:54:55.449Z,9.00
2023-03-06T03:57:22.446Z,9.00
2023-03-06T03:59:49.443Z,9.00
2023-03-06T04:02:17.145Z,9.00
2023-03-06T04:04:44.016Z,9.00
2023-03-06T04:07:10.866Z,9.00
2023-03-06T04:09:37.794Z,9.00
2023-03-06T04:12:05.242Z,9.00
2023-03-06T04:14:32.120Z,9.00
2023-03-06T04:16:58.995Z,9.00
2023-03-06T04:19:25.868Z,9.00
2023-03-06T04:21:52.715Z,9.00
2023-03-06T04:24:19.658Z,9.00
2023-03-06T04:26:46.604Z,9.10
2023-03-06T04:29:13.708Z,9.10
2023-03-06T04:31:40.654Z,9.10
2023-03-06T04:34:07.494Z,9.10
2023-03-06T04:36:35.260Z,9.10
2023-03-06T04:39:02.992Z,9.10
2023-03-06T04:41:30.821Z,9.10
2023-03-06T04:43:58.096Z,9.10
2023-03-06T04:46:25.396Z,9.10
2023-03-06T04:48:52.292Z,9.10
2023-03-06T04:51:19.279Z,9.10
2023-03-06T04:53:46.132Z,9.10
2023-03-06T04:56:14.135Z,9.00
2023-03-06T04:58:41.154Z,9.10
2023-03-06T05:01:08.039Z,9.00
2023-03-06T05:03:34.940Z,9.10
2023-03-06T05:06:01.873Z,9.10
2023-03-06T05:08:28.837Z,9.10
2023-03-06T05:10:58.543Z,9.00
2023-03-06T05:13:26.298Z,9.00
2023-03-06T05:15:53.349Z,9.10
2023-03-06T05:18:20.852Z,9.10
2023-03-06T05:20:47.744Z,9.10
2023-03-06T05:23:14.696Z,9.20
2023-03-06T05:25:41.902Z,9.20
2023-03-06T05:28:08.935Z,9.20
2023-03-06T05:30:35.989Z,9.20
2023-03-06T05:33:02.878Z,9.20
2023-03-06T05:35:29.974Z,9.20
2023-03-06T05:37:57.298Z,9.20
2023-03-06T05:40:24.232Z,9.20
2023-03-06T05:42:51.175Z,9.20
2023-03-06T05:45:18.174Z,9.20
2023-03-06T05:47:45.232Z,9.30
2023-03-06T05:50:15.042Z,9.30
2023-03-06T05:52:42.853Z,9.30
2023-03-06T05:55:12.123Z,9.20
2023-03-06T05:57:39.309Z,9.30
2023-03-06T06:00:07.023Z,9.30
2023-03-06T06:02:33.851Z,9.30
2023-03-06T06:05:02.304Z,9.30
2023-03-06T06:07:29.533Z,9.30
2023-03-06T06:09:56.481Z,9.30
2023-03-06T06:12:23.586Z,9.30
2023-03-06T06:14:50.743Z,9.30
2023-03-06T06:17:17.833Z,9.30
2023-03-06T06:19:45.916Z,9.30
2023-03-06T06:22:12.959Z,9.30
2023-03-06T06:24:40.709Z,9.30
2023-03-06T06:27:08.530Z,9.30
2023-03-06T06:29:36.154Z,9.40
2023-03-06T06:32:03.250Z,9.40
2023-03-06T06:34:32.020Z,9.40
2023-03-06T06:37:01.374Z,9.40
2023-03-06T06:39:29.361Z,9.40
2023-03-06T06:42:09.951Z,9.40
2023-03-06T06:44:43.118Z,9.50
2023-03-06T06:47:22.426Z,9.50
2023-03-06T06:49:55.336Z,9.60
2023-03-06T06:52:24.956Z,9.60
2023-03-06T06:54:53.758Z,9.60
2023-03-06T06:57:20.798Z,9.70
2023-03-06T06:59:47.527Z,9.70
2023-03-06T07:02:16.421Z,9.70
2023-03-06T07:05:00.412Z,9.80
2023-03-06T07:07:29.763Z,9.80
2023-03-06T07:09:56.699Z,9.90
2023-03-06T07:12:23.485Z,10.00
2023-03-06T07:14:50.821Z,9.90
2023-03-06T07:17:17.740Z,10.00
2023-03-06T07:19:45.512Z,10.00
2023-03-06T07:22:12.603Z,10.00
2023-03-06T07:24:46.550Z,10.10
2023-03-06T07:27:13.659Z,10.10
2023-03-06T07:29:45.872Z,10.10
2023-03-06T07:32:12.688Z,10.20
2023-03-06T07:34:39.553Z,10.20
2023-03-06T07:37:06.504Z,10.20
2023-03-06T07:39:33.447Z,10.20
2023-03-06T07:42:00.362Z,10.30
2023-03-06T07:44:27.509Z,10.30
2023-03-06T07:46:54.635Z,10.40
2023-03-06T07:49:21.843Z,10.50
2023-03-06T07:51:48.773Z,10.50
2023-03-06T07:54:15.756Z,10.60
2023-03-06T07:56:43.141Z,10.70
2023-03-06T07:59:11.730Z,10.80
2023-03-06T08:01:40.292Z,10.80
2023-03-06T08:04:07.525Z,10.80
2023-03-06T08:06:34.558Z,10.90
2023-03-06T08:09:01.509Z,10.90
2023-03-06T08:11:30.506Z,11.00
2023-03-06T08:13:58.420Z,11.00
2023-03-06T08:16:28.274Z,11.10
2023-03-06T08:18:55.226Z,11.10
2023-03-06T08:21:26.233Z,11.20
2023-03-06T08:23:53.162Z,11.20
2023-03-06T08:26:28.855Z,11.30
2023-03-06T08:28:57.590Z,11.40
2023-03-06T08:31:32.743Z,11.40
2023-03-06T08:34:06.382Z,11.50
2023-03-06T08:36:33.386Z,11.40
2023-03-06T08:39:00.992Z,11.40
2023-03-06T08:41:28.910Z,11.50
2023-03-06T08:43:55.800Z,11.60
2023-03-06T08:46:26.951Z,11.60
2023-03-06T08:48:54.069Z,11.70
2023-03-06T08:51:22.061Z,11.70
2023-03-06T08:53:49.660Z,11.70
2023-03-06T08:56:27.896Z,11.70
2023-03-06T08:58:56.485Z,11.80
2023-03-06T09:01:28.106Z,11.90
2023-03-06T09:03:57.835Z,12.00
2023-03-06T09:06:26.311Z,12.10
2023-03-06T09:08:54.487Z,12.10
2023-03-06T09:11:23.431Z,12.20
2023-03-06T09:13:50.896Z,12.20
2023-03-06T09:16:18.048Z,12.20
2023-03-06T09:18:45.083Z,12.20
2023-03-06T09:21:12.284Z,12.20
2023-03-06T09:23:39.703Z,12.20
2023-03-06T09:26:08.604Z,12.20
2023-03-06T09:28:36.866Z,12.30
2023-03-06T09:31:11.557Z,12.30
2023-03-06T09:33:38.589Z,12.40
2023-03-06T09:36:14.085Z,12.50
2023-03-06T09:38:41.234Z,12.70
2023-03-06T09:41:28.379Z,12.80
2023-03-06T09:44:20.390Z,12.90
2023-03-06T09:47:11.494Z,13.10
2023-03-06T09:49:43.205Z,13.10
2023-03-06T09:52:19.052Z,13.20
2023-03-06T09:54:52.522Z,13.20
2023-03-06T09:57:27.956Z,13.30
2023-03-06T10:00:03.851Z,13.40
2023-03-06T10:03:07.917Z,13.50
2023-03-06T10:05:50.580Z,13.70
2023-03-06T10:08:21.534Z,13.70
2023-03-06T10:10:59.797Z,13.80
2023-03-06T10:13:37.377Z,13.90
2023-03-06T10:16:31.358Z,13.90
2023-03-06T10:19:10.713Z,13.90
2023-03-06T10:22:12.665Z,14.00
2023-03-06T10:25:12.422Z,14.20
2023-03-06T10:27:49.817Z,14.30
2023-03-06T10:30:28.693Z,14.30
2023-03-06T10:33:09.471Z,14.40
2023-03-06T10:35:51.617Z,14.60
2023-03-06T10:38:33.058Z,14.70
2023-03-06T10:41:26.736Z,14.80
2023-03-06T10:44:05.756Z,14.90
2023-03-06T10:46:36.777Z,14.90
2023-03-06T10:49:06.309Z,14.90
2023-03-06T10:51:34.333Z,15.10
2023-03-06T10:54:17.379Z,15.20
2023-03-06T10:56:46.535Z,15.30
2023-03-06T10:59:17.011Z,15.60
2023-03-06T11:01:50.343Z,15.70
2023-03-06T11:04:37.301Z,15.90
2023-03-06T11:07:18.049Z,15.90
2023-03-06T11:10:19.826Z,16.00
2023-03-06T11:13:09.376Z,16.00
2023-03-06T11:15:36.629Z,16.00
2023-03-06T11:18:09.342Z,16.00
2023-03-06T11:20:52.464Z,16.10
2023-03-06T11:23:35.102Z,16.10
2023-03-06T11:26:17.769Z,16.20
2023-03-06T11:29:03.326Z,16.20
2023-03-06T11:32:00.901Z,16.10
2023-03-06T11:34:59.852Z,16.20
2023-03-06T11:37:32.989Z,16.20
2023-03-06T11:40:15.603Z,16.40
2023-03-06T11:42:58.012Z,16.50
2023-03-06T11:45:25.103Z,16.60
2023-03-06T11:48:11.405Z,16.60
2023-03-06T11:50:43.011Z,16.50
2023-03-06T11:53:16.353Z,16.40
2023-03-06T11:55:49.029Z,16.40
2023-03-06T11:58:22.025Z,16.30
2023-03-06T12:01:14.111Z,16.20
2023-03-06T12:03:56.378Z,16.10
2023-03-06T12:06:45.270Z,16.00
2023-03-06T12:09:22.715Z,15.90
2023-03-06T12:12:10.494Z,15.90
2023-03-06T12:14:53.908Z,15.90
2023-03-06T12:17:33.523Z,15.80
2023-03-06T12:20:12.744Z,15.80
2023-03-06T12:22:58.014Z,15.80
2023-03-06T12:25:38.153Z,15.70
2023-03-06T12:28:17.372Z,15.60
2023-03-06T12:31:05.203Z,15.60
2023-03-06T12:33:53.281Z,15.60
2023-03-06T12:36:33.444Z,15.70
2023-03-06T12:39:09.119Z,15.80
2023-03-06T12:41:38.807Z,15.80
2023-03-06T12:44:35.310Z,15.70
2023-03-06T12:47:07.023Z,15.70
2023-03-06T12:49:38.918Z,15.50
2023-03-06T12:52:07.779Z,15.40
2023-03-06T12:54:38.969Z,15.30
2023-03-06T12:57:08.918Z,15.20
2023-03-06T12:59:48.533Z,15.10
2023-03-06T13:02:50.326Z,15.10
2023-03-06T13:05:41.802Z,15.00
2023-03-06T13:08:44.351Z,15.00
2023-03-06T13:11:28.266Z,15.10
2023-03-06T13:13:55.233Z,15.20
2023-03-06T13:16:33.271Z,15.30
2023-03-06T13:19:20.028Z,15.40
2023-03-06T13:21:54.231Z,15.40
2023-03-06T13:24:24.256Z,15.30
2023-03-06T13:26:54.081Z,15.30
2023-03-06T13:29:36.297Z,15.30
2023-03-06T13:32:15.498Z,15.30
2023-03-06T13:34:48.395Z,15.30
2023-03-06T13:37:23.187Z,15.30
2023-03-06T13:39:55.554Z,15.30
2023-03-06T13:43:00.694Z,15.30
2023-03-06T13:45:38.083Z,15.40
2023-03-06T13:48:30.278Z,15.30
2023-03-06T13:50:55.490Z,15.30
2023-03-06T13:53:32.203Z,15.30
2023-03-06T13:56:05.222Z,15.30
2023-03-06T13:58:38.057Z,15.20
2023-03-06T14:01:28.516Z,15.20
2023-03-06T14:04:19.874Z,15.20
2023-03-06T14:07:01.464Z,15.10
2023-03-06T14:09:51.551Z,15.00
2023-03-06T14:12:58.837Z,14.90
2023-03-06T14:15:31.672Z,14.90
2023-03-06T14:18:23.917Z,14.80
2023-03-06T14:21:05.336Z,14.80
2023-03-06T14:23:40.041Z,14.70
2023-03-06T14:26:20.091Z,14.60
2023-03-06T14:28:59.618Z,14.60
2023-03-06T14:31:31.601Z,14.60
2023-03-06T14:34:05.205Z,14.50
2023-03-06T14:36:43.243Z,14.50
2023-03-06T14:39:27.183Z,14.60
2023-03-06T14:42:09.341Z,14.50
2023-03-06T14:44:36.174Z,14.40
2023-03-06T14:47:35.322Z,14.30
2023-03-06T14:50:32.532Z,14.20
2023-03-06T14:53:15.548Z,14.10
2023-03-06T14:55:50.521Z,14.00
2023-03-06T14:58:32.855Z,14.00
2023-03-06T15:01:13.154Z,14.00
2023-03-06T15:03:45.793Z,14.00
2023-03-06T15:06:20.004Z,14.00
2023-03-06T15:08:52.264Z,13.90
2023-03-06T15:11:19.163Z,13.80
2023-03-06T15:14:02.024Z,13.70
2023-03-06T15:16:30.629Z,13.60
2023-03-06T15:19:04.716Z,13.60
2023-03-06T15:21:38.766Z,13.60
2023-03-06T15:24:31.336Z,13.60
2023-03-06T15:27:02.321Z,13.50
2023-03-06T15:29:29.621Z,13.50
2023-03-06T15:32:14.769Z,13.50
2023-03-06T15:34:42.986Z,13.50
2023-03-06T15:37:29.202Z,13.40
2023-03-06T15:40:06.327Z,13.40
2023-03-06T15:42:35.352Z,13.30
2023-03-06T15:45:16.098Z,13.30
2023-03-06T15:47:44.801Z,13.30
2023-03-06T15:50:25.077Z,13.30
2023-03-06T15:52:52.565Z,13.20
2023-03-06T15:55:22.632Z,13.20
2023-03-06T15:57:58.336Z,13.10
2023-03-06T16:00:28.738Z,13.10
2023-03-06T16:02:57.449Z,13.00
2023-03-06T16:05:25.467Z,13.00
2023-03-06T16:07:52.165Z,12.90
2023-03-06T16:10:21.611Z,12.80
2023-03-06T16:13:08.631Z,12.70
2023-03-06T16:15:45.154Z,12.50
2023-03-06T16:18:12.762Z,12.40
2023-03-06T16:20:41.645Z,12.30
2023-03-06T16:23:10.802Z,12.20
2023-03-06T16:25:40.100Z,12.10
2023-03-06T16:28:12.464Z,12.00
2023-03-06T16:30:39.327Z,11.90
2023-03-06T16:33:06.471Z,11.80
2023-03-06T16:35:33.363Z,11.70
2023-03-06T16:38:03.326Z,11.60
2023-03-06T16:40:37.710Z,11.60
2023-03-06T16:43:05.290Z,11.40
2023-03-06T16:45:37.773Z,11.30
2023-03-06T16:48:04.882Z,11.30
2023-03-06T16:50:40.520Z,11.20
2023-03-06T16:53:08.240Z,11.20
2023-03-06T16:55:35.178Z,11.20
2023-03-06T16:58:04.647Z,11.10
2023-03-06T17:00:33.348Z,11.20
2023-03-06T17:03:02.006Z,11.10
2023-03-06T17:05:29.627Z,11.20
2023-03-06T17:07:56.501Z,11.20
2023-03-06T17:10:26.502Z,11.20
2023-03-06T17:12:54.296Z,11.10
2023-03-06T17:15:21.859Z,11.10
2023-03-06T17:17:49.018Z,11.10
2023-03-06T17:20:15.847Z,11.10
2023-03-06T17:22:42.741Z,11.10
2023-03-06T17:25:10.249Z,11.00
2023-03-06T17:27:38.267Z,11.00
2023-03-06T17:30:06.752Z,11.10
2023-03-06T17:32:34.223Z,11.10
2023-03-06T17:35:01.266Z,11.10
2023-03-06T17:37:28.223Z,11.00
2023-03-06T17:39:55.512Z,11.10
2023-03-06T17:42:22.402Z,11.10
2023-03-06T17:44:49.215Z,11.10
2023-03-06T17:47:16.034Z,11.10
2023-03-06T17:49:42.978Z,11.10
2023-03-06T17:52:11.185Z,11.10
2023-03-06T17:54:37.892Z,11.10
2023-03-06T17:57:06.728Z,11.10
2023-03-06T17:59:36.531Z,11.10
2023-03-06T18:02:03.462Z,11.20
2023-03-06T18:04:30.396Z,11.20
2023-03-06T18:06:58.425Z,11.20
2023-03-06T18:09:26.384Z,11.20
2023-03-06T18:11:53.210Z,11.20
2023-03-06T18:14:23.205Z,11.10
2023-03-06T18:16:50.442Z,11.10
2023-03-06T18:19:17.679Z,11.10
2023-03-06T18:21:44.539Z,11.10
2023-03-06T18:24:12.383Z,11.10
2023-03-06T18:26:44.467Z,11.10
2023-03-06T18:29:11.494Z,11.10
2023-03-06T18:31:41.148Z,11.00
2023-03-06T18:34:13.637Z,11.00
2023-03-06T18:36:42.454Z,10.90
2023-03-06T18:39:11.830Z,10.80
2023-03-06T18:41:39.010Z,10.80
2023-03-06T18:44:06.135Z,10.80
2023-03-06T18:46:36.255Z,10.70
2023-03-06T18:49:04.478Z,10.70
2023-03-06T18:51:31.988Z,10.70
2023-03-06T18:54:00.414Z,10.80
2023-03-06T18:56:28.074Z,10.70
2023-03-06T18:58:55.421Z,10.60
2023-03-06T19:01:23.128Z,10.60
2023-03-06T19:03:50.491Z,10.50
2023-03-06T19:06:18.475Z,10.50
2023-03-06T19:08:45.480Z,10.50
2023-03-06T19:11:15.951Z,10.50
2023-03-06T19:13:43.361Z,10.40
2023-03-06T19:16:18.005Z,10.50
2023-03-06T19:18:46.312Z,10.50
2023-03-06T19:21:23.854Z,10.50
2023-03-06T19:23:50.858Z,10.50
2023-03-06T19:26:20.996Z,10.40
2023-03-06T19:28:48.889Z,10.40
2023-03-06T19:31:21.741Z,10.40
2023-03-06T19:33:50.202Z,10.30
2023-03-06T19:36:19.534Z,10.30
2023-03-06T19:38:52.713Z,10.30
2023-03-06T19:41:19.489Z,10.40
2023-03-06T19:43:54.011Z,10.40
2023-03-06T19:46:23.161Z,10.40
2023-03-06T19:48:56.410Z,10.30
2023-03-06T19:51:23.641Z,10.30
2023-03-06T19:53:50.549Z,10.30
2023-03-06T19:56:29.154Z,10.40
2023-03-06T19:58:56.581Z,10.40
2023-03-06T20:01:27.183Z,10.40
2023-03-06T20:03:59.215Z,10.30
2023-03-06T20:06:28.792Z,10.30
2023-03-06T20:08:57.001Z,10.40
2023-03-06T20:11:31.782Z,10.40
2023-03-06T20:14:03.693Z,10.30
2023-03-06T20:16:31.865Z,10.30
2023-03-06T20:19:00.416Z,10.30
2023-03-06T20:21:29.505Z,10.40
2023-03-06T20:23:58.135Z,10.40
2023-03-06T20:26:27.377Z,10.50
2023-03-06T20:28:54.922Z,10.50
2023-03-06T20:31:24.206Z,10.50
2023-03-06T20:33:53.125Z,10.50
2023-03-06T20:36:23.291Z,10.50
2023-03-06T20:38:50.987Z,10.50
2023-03-06T20:41:20.725Z,10.50
2023-03-06T20:43:49.727Z,10.60
2023-03-06T20:46:17.178Z,10.60
2023-03-06T20:48:47.029Z,10.70
2023-03-06T20:51:22.492Z,10.70
2023-03-06T20:53:51.775Z,10.70
2023-03-06T20:56:21.232Z,10.70
2023-03-06T20:58:48.084Z,10.70
2023-03-06T21:01:23.298Z,10.70
2023-03-06T21:03:50.867Z,10.80
2023-03-06T21:06:18.079Z,10.80
2023-03-06T21:08:45.193Z,10.80
2023-03-06T21:11:14.891Z,10.90
2023-03-06T21:13:43.616Z,10.90
2023-03-06T21:16:13.973Z,10.90
2023-03-06T21:18:41.038Z,11.00
2023-03-06T21:21:09.844Z,11.00
2023-03-06T21:23:38.200Z,11.00
2023-03-06T21:26:05.460Z,11.00
2023-03-06T21:28:32.822Z,11.00
2023-03-06T21:31:02.905Z,11.00
2023-03-06T21:33:29.812Z,11.00
2023-03-06T21:35:56.651Z,11.10
2023-03-06T21:38:23.636Z,11.10
2023-03-06T21:40:50.567Z,11.10
2023-03-06T21:43:17.933Z,11.10
2023-03-06T21:45:48.872Z,11.10
2023-03-06T21:48:16.317Z,11.20
2023-03-06T21:50:43.266Z,11.20
2023-03-06T21:53:10.262Z,11.10
2023-03-06T21:55:41.003Z,11.20
2023-03-06T21:58:08.452Z,11.30
2023-03-06T22:00:38.682Z,11.30
2023-03-06T22:03:06.602Z,11.20
2023-03-06T22:05:34.554Z,11.30
2023-03-06T22:08:01.713Z,11.30
2023-03-06T22:10:28.823Z,11.40
2023-03-06T22:12:55.656Z,11.40
2023-03-06T22:15:22.644Z,11.40
2023-03-06T22:17:49.801Z,11.50
2023-03-06T22:20:16.893Z,11.50
2023-03-06T22:22:43.902Z,11.50
2023-03-06T22:25:11.960Z,11.50
2023-03-06T22:27:39.117Z,11.50
2023-03-06T22:30:06.412Z,11.50
2023-03-06T22:32:33.908Z,11.50
2023-03-06T22:35:00.772Z,11.50
2023-03-06T22:37:31.349Z,11.50
2023-03-06T22:40:01.116Z,11.50
2023-03-06T22:42:28.695Z,11.50
2023-03-06T22:44:55.456Z,11.50
2023-03-06T22:47:22.330Z,11.50
2023-03-06T22:49:49.190Z,11.50
2023-03-06T22:52:19.493Z,11.50
2023-03-06T22:54:46.325Z,11.50
2023-03-06T22:57:13.354Z,11.40
2023-03-06T22:59:42.809Z,11.40
2023-03-06T23:02:10.221Z,11.40
2023-03-06T23:04:37.605Z,11.40
2023-03-06T23:07:04.669Z,11.50
2023-03-06T23:09:31.753Z,11.50
2023-03-06T23:11:58.719Z,11.60
2023-03-06T23:14:25.598Z,11.50
2023-03-06T23:16:52.666Z,11.50
2023-03-06T23:19:19.602Z,11.60
2023-03-06T23:21:50.566Z,11.60
2023-03-06T23:24:18.408Z,11.50
2023-03-06T23:26:45.352Z,11.50
2023-03-06T23:29:13.476Z,11.60
2023-03-06T23:31:40.523Z,11.50
2023-03-06T23:34:09.583Z,11.50
2023-03-06T23:36:36.863Z,11.60
2023-03-06T23:39:03.728Z,11.60
2023-03-06T23:41:30.510Z,11.60
2023-03-06T23:43:58.887Z,11.60
2023-03-06T23:46:27.177Z,11.60
2023-03-06T23:48:54.262Z,11.60
2023-03-06T23:51:22.701Z,11.60
2023-03-06T23:53:58.320Z,11.70
2023-03-06T23:56:27.338Z,11.70
2023-03-06T23:58:54.639Z,11.70
